Time;durP1;ratioP1;P1;durP2;ratioP2;P2;SDS_P1;SDS_P2;PMS_P1;PMS_P2;Temp;Humidity;BMP_temperature;BMP_pressure;BME280_temperature;BME280_humidity;BME280_pressure;Samples;Min_cycle;Max_cycle;Signal;HPM_P1;HPM_P2
2022/03/13 00:00:47;;;;;;;;;;;12.40;92.40;;;;;;4317389;33;43915;-83
2022/03/13 00:03:15;;;;;;;;;;;12.40;92.50;;;;;;4318241;33;44325;-82
2022/03/13 00:05:43;;;;;;;;;;;12.40;92.80;;;;;;4317345;33;43482;-83
2022/03/13 00:08:18;;;;;;;;;;;12.40;92.60;;;;;;4317542;33;43851;-82
2022/03/13 00:10:47;;;;;;;;;;;12.40;92.60;;;;;;4316991;33;42859;-83
2022/03/13 00:13:17;;;;;;;;;;;12.30;92.60;;;;;;4317263;33;43552;-83
2022/03/13 00:15:45;;;;;;;;;;;12.40;92.60;;;;;;4317178;33;44662;-83
2022/03/13 00:18:12;;;;;;;;;;;12.30;92.70;;;;;;4318101;33;44893;-83
2022/03/13 00:20:40;;;;;;;;;;;12.30;92.80;;;;;;4316776;33;43794;-83
2022/03/13 00:23:07;;;;;;;;;;;12.40;92.90;;;;;;4317281;33;43896;-83
2022/03/13 00:25:34;;;;;;;;;;;12.30;93.00;;;;;;4318298;33;43864;-82
2022/03/13 00:28:02;;;;;;;;;;;12.40;93.00;;;;;;4316709;33;45006;-83
2022/03/13 00:30:31;;;;;;;;;;;12.30;93.20;;;;;;4316796;33;44508;-83
2022/03/13 00:33:00;;;;;;;;;;;12.30;93.20;;;;;;4316939;33;43816;-83
2022/03/13 00:35:27;;;;;;;;;;;12.30;93.30;;;;;;4318193;33;43177;-82
2022/03/13 00:37:55;;;;;;;;;;;12.30;93.40;;;;;;4316946;33;43039;-83
2022/03/13 00:40:22;;;;;;;;;;;12.30;93.40;;;;;;4317041;33;43482;-83
2022/03/13 00:42:49;;;;;;;;;;;12.40;93.50;;;;;;4316758;33;43884;-83
2022/03/13 00:45:16;;;;;;;;;;;12.30;93.50;;;;;;4316538;33;43058;-83
2022/03/13 00:47:43;;;;;;;;;;;12.30;93.60;;;;;;4328943;33;44027;-84
2022/03/13 00:50:11;;;;;;;;;;;12.30;93.50;;;;;;4316455;33;43723;-83
2022/03/13 00:52:38;;;;;;;;;;;12.30;93.60;;;;;;4317870;33;44655;-83
2022/03/13 00:55:05;;;;;;;;;;;12.30;93.80;;;;;;4316796;33;43876;-83
2022/03/13 00:57:32;;;;;;;;;;;12.30;93.80;;;;;;4316248;33;44082;-83
2022/03/13 00:59:59;;;;;;;;;;;12.30;93.90;;;;;;4316632;33;45914;-83
2022/03/13 01:02:26;;;;;;;;;;;12.30;93.90;;;;;;4316252;33;44195;-82
2022/03/13 01:04:54;;;;;;;;;;;12.30;94.10;;;;;;4316540;33;44182;-83
2022/03/13 01:07:21;;;;;;;;;;;12.30;94.00;;;;;;4316453;33;42470;-83
2022/03/13 01:09:48;;;;;;;;;;;12.30;94.30;;;;;;4316640;33;43894;-83
2022/03/13 01:12:19;;;;;;;;;;;12.30;94.30;;;;;;4316460;33;44247;-83
2022/03/13 01:14:47;;;;;;;;;;;12.30;94.30;;;;;;4316348;33;42782;-82
2022/03/13 01:17:17;;;;;;;;;;;12.30;94.40;;;;;;4316482;33;44661;-83
2022/03/13 01:19:44;;;;;;;;;;;12.30;94.40;;;;;;4316057;33;44321;-83
2022/03/13 01:22:12;;;;;;;;;;;12.20;94.40;;;;;;4316328;33;42990;-83
2022/03/13 01:24:43;;;;;;;;;;;12.30;94.50;;;;;;4316414;33;43931;-82
2022/03/13 01:27:11;;;;;;;;;;;12.30;94.50;;;;;;4316097;33;43007;-83
2022/03/13 01:29:39;;;;;;;;;;;12.30;94.60;;;;;;4316295;33;43137;-83
2022/03/13 01:32:09;;;;;;;;;;;12.30;94.60;;;;;;4328444;33;43752;-85
2022/03/13 01:34:38;;;;;;;;;;;12.30;94.60;;;;;;4316174;33;44830;-84
2022/03/13 01:37:08;;;;;;;;;;;12.30;94.60;;;;;;4315752;33;44203;-83
2022/03/13 01:39:35;;;;;;;;;;;12.30;94.70;;;;;;4317725;33;20016;-83
2022/03/13 01:42:03;;;;;;;;;;;12.30;94.70;;;;;;4315651;33;44310;-83
2022/03/13 01:44:30;;;;;;;;;;;12.30;94.70;;;;;;4315748;33;43054;-83
2022/03/13 01:46:57;;;;;;;;;;;12.30;94.80;;;;;;4316832;33;44049;-83
2022/03/13 01:49:24;;;;;;;;;;;12.40;95.00;;;;;;4316635;33;44625;-83
2022/03/13 01:51:51;;;;;;;;;;;12.30;95.10;;;;;;4315604;33;44116;-84
2022/03/13 01:54:18;;;;;;;;;;;12.30;95.00;;;;;;4327918;33;44024;-83
2022/03/13 01:56:45;;;;;;;;;;;12.30;95.10;;;;;;4315507;33;42882;-83
2022/03/13 01:59:14;;;;;;;;;;;12.30;95.10;;;;;;4316533;33;44239;-82
2022/03/13 02:01:42;;;;;;;;;;;12.30;95.10;;;;;;4315456;33;44216;-83
2022/03/13 02:04:14;;;;;;;;;;;12.30;95.40;;;;;;4316374;33;45087;-83
2022/03/13 02:06:41;;;;;;;;;;;12.30;95.20;;;;;;4314761;33;42486;-83
2022/03/13 02:09:09;;;;;;;;;;;12.30;95.50;;;;;;4315057;33;43314;-83
2022/03/13 02:11:40;;;;;;;;;;;12.30;95.40;;;;;;4314725;33;43911;-83
2022/03/13 02:14:08;;;;;;;;;;;12.30;95.40;;;;;;4327365;33;44214;-83
2022/03/13 02:16:35;;;;;;;;;;;12.30;95.50;;;;;;4315793;33;42644;-83
2022/03/13 02:19:04;;;;;;;;;;;12.20;95.30;;;;;;4314256;33;42989;-83
2022/03/13 02:21:36;;;;;;;;;;;12.20;95.40;;;;;;4315892;33;44345;-83
2022/03/13 02:24:07;;;;;;;;;;;12.20;95.50;;;;;;4316114;33;44153;-83
2022/03/13 02:26:34;;;;;;;;;;;12.20;95.50;;;;;;4316118;33;44473;-83
2022/03/13 02:29:01;;;;;;;;;;;12.20;95.60;;;;;;4314937;33;43219;-83
2022/03/13 02:31:34;;;;;;;;;;;12.20;95.90;;;;;;4314652;33;43897;-83
2022/03/13 02:34:01;;;;;;;;;;;12.20;96.00;;;;;;4316094;33;45334;-83
2022/03/13 02:36:31;;;;;;;;;;;12.20;96.00;;;;;;4314774;33;43037;-84
2022/03/13 02:38:58;;;;;;;;;;;12.20;95.90;;;;;;4314441;33;42974;-84
2022/03/13 02:41:28;;;;;;;;;;;12.10;96.00;;;;;;4314821;33;44769;-83
2022/03/13 02:43:56;;;;;;;;;;;12.10;96.10;;;;;;4315924;33;43449;-83
2022/03/13 02:46:42;;;;;;;;;;;12.10;96.30;;;;;;4314431;33;42747;-83
2022/03/13 02:49:09;;;;;;;;;;;12.10;96.20;;;;;;4302675;33;44801;-83
2022/03/13 02:51:37;;;;;;;;;;;12.10;96.40;;;;;;4314259;33;43555;-83
2022/03/13 02:54:04;;;;;;;;;;;12.10;96.40;;;;;;4314626;33;43848;-83
2022/03/13 02:56:32;;;;;;;;;;;12.10;96.30;;;;;;4315375;33;43856;-83
2022/03/13 02:59:00;;;;;;;;;;;12.00;96.40;;;;;;4326233;33;44271;-83
2022/03/13 03:01:27;;;;;;;;;;;12.10;96.30;;;;;;4314587;33;44219;-83
2022/03/13 03:04:01;;;;;;;;;;;12.00;96.30;;;;;;4315258;33;43479;-83
2022/03/13 03:06:29;;;;;;;;;;;12.00;96.10;;;;;;4314800;33;43801;-84
2022/03/13 03:08:56;;;;;;;;;;;12.00;96.10;;;;;;4314823;33;43926;-83
2022/03/13 03:11:24;;;;;;;;;;;12.00;96.00;;;;;;4314881;33;43666;-83
2022/03/13 03:13:51;;;;;;;;;;;12.00;95.80;;;;;;4326993;33;43283;-83
2022/03/13 03:16:18;;;;;;;;;;;11.90;95.80;;;;;;4314843;33;43886;-83
2022/03/13 03:18:46;;;;;;;;;;;11.90;95.50;;;;;;4327089;33;44998;-82
2022/03/13 03:21:15;;;;;;;;;;;11.90;95.40;;;;;;4315965;33;43087;-83
2022/03/13 03:23:42;;;;;;;;;;;11.90;95.30;;;;;;4315019;33;44709;-83
2022/03/13 03:26:09;;;;;;;;;;;11.90;95.20;;;;;;4316057;33;44183;-83
2022/03/13 03:28:36;;;;;;;;;;;11.90;95.00;;;;;;4326587;33;43871;-83
2022/03/13 03:31:03;;;;;;;;;;;11.80;95.00;;;;;;4314032;33;43854;-84
2022/03/13 03:33:30;;;;;;;;;;;11.80;94.90;;;;;;4314439;33;42604;-83
2022/03/13 03:35:57;;;;;;;;;;;11.80;94.80;;;;;;4314824;33;44819;-84
2022/03/13 03:38:24;;;;;;;;;;;11.80;94.70;;;;;;4314441;33;43745;-83
2022/03/13 03:40:51;;;;;;;;;;;11.80;94.40;;;;;;4326506;33;43364;-83
2022/03/13 03:43:19;;;;;;;;;;;11.80;94.60;;;;;;4314306;33;43251;-82
2022/03/13 03:45:46;;;;;;;;;;;11.80;94.20;;;;;;4315694;33;42755;-83
2022/03/13 03:48:13;;;;;;;;;;;11.80;94.10;;;;;;4314327;33;42828;-83
2022/03/13 03:50:40;;;;;;;;;;;11.80;93.60;;;;;;4314747;33;42942;-83
2022/03/13 03:53:07;;;;;;;;;;;11.80;93.10;;;;;;4316078;33;43216;-84
2022/03/13 03:55:34;;;;;;;;;;;11.80;93.10;;;;;;4314392;33;42687;-83
2022/03/13 03:58:01;;;;;;;;;;;11.80;92.60;;;;;;4315630;33;42990;-83
2022/03/13 04:00:29;;;;;;;;;;;11.70;92.50;;;;;;4314493;33;42854;-83
2022/03/13 04:02:56;;;;;;;;;;;11.70;92.60;;;;;;4314013;33;43258;-83
2022/03/13 04:05:24;;;;;;;;;;;11.80;92.50;;;;;;4314178;33;42889;-83
2022/03/13 04:07:51;;;;;;;;;;;11.70;92.40;;;;;;4314300;33;44217;-83
2022/03/13 04:10:18;;;;;;;;;;;11.70;92.00;;;;;;4314066;33;44605;-83
2022/03/13 04:12:45;;;;;;;;;;;11.70;91.60;;;;;;4326802;33;44203;-83
2022/03/13 04:15:12;;;;;;;;;;;11.70;91.40;;;;;;4314071;33;43909;-83
2022/03/13 04:17:39;;;;;;;;;;;11.70;91.50;;;;;;4326182;33;44731;-83
2022/03/13 04:20:06;;;;;;;;;;;11.70;91.60;;;;;;4315280;33;44127;-83
2022/03/13 04:22:34;;;;;;;;;;;11.70;91.40;;;;;;4314242;33;42721;-83
2022/03/13 04:25:01;;;;;;;;;;;11.70;91.90;;;;;;4314075;33;42728;-83
2022/03/13 04:27:28;;;;;;;;;;;11.70;91.70;;;;;;4314350;33;44103;-83
2022/03/13 04:29:55;;;;;;;;;;;11.70;91.70;;;;;;4315635;33;43857;-82
2022/03/13 04:32:23;;;;;;;;;;;11.70;91.70;;;;;;4314582;33;44203;-83
2022/03/13 04:34:50;;;;;;;;;;;11.70;91.60;;;;;;4314691;33;44308;-83
2022/03/13 04:37:18;;;;;;;;;;;11.70;91.60;;;;;;4315578;33;46125;-83
2022/03/13 04:39:50;;;;;;;;;;;11.60;91.40;;;;;;4315112;33;44747;-83
2022/03/13 04:42:17;;;;;;;;;;;11.60;91.30;;;;;;4316770;33;43203;-83
2022/03/13 04:44:45;;;;;;;;;;;11.60;91.70;;;;;;4318088;33;43080;-83
2022/03/13 04:47:12;;;;;;;;;;;11.60;91.30;;;;;;4317576;33;44225;-82
2022/03/13 04:49:39;;;;;;;;;;;11.60;91.50;;;;;;4329008;33;46233;-83
2022/03/13 04:52:10;;;;;;;;;;;11.60;91.50;;;;;;4316735;33;43321;-83
2022/03/13 04:54:37;;;;;;;;;;;11.60;91.30;;;;;;4316741;33;43322;-83
2022/03/13 04:57:04;;;;;;;;;;;11.60;91.30;;;;;;4317956;33;43876;-83
2022/03/13 04:59:31;;;;;;;;;;;11.60;91.00;;;;;;4316441;33;42468;-83
2022/03/13 05:01:59;;;;;;;;;;;11.60;91.00;;;;;;4317242;33;43213;-83
2022/03/13 05:04:27;;;;;;;;;;;11.60;91.20;;;;;;4317317;33;43262;-83
2022/03/13 05:06:54;;;;;;;;;;;11.50;91.10;;;;;;4316228;33;44862;-83
2022/03/13 05:09:21;;;;;;;;;;;11.50;91.00;;;;;;4317364;33;44053;-83
2022/03/13 05:11:48;;;;;;;;;;;11.50;91.00;;;;;;4328904;33;23702;-83
2022/03/13 05:14:15;;;;;;;;;;;11.50;91.30;;;;;;4316581;33;43972;-83
2022/03/13 05:16:42;;;;;;;;;;;11.50;91.30;;;;;;4317159;33;43716;-83
2022/03/13 05:19:10;;;;;;;;;;;11.50;91.50;;;;;;4317804;33;43578;-83
2022/03/13 05:21:37;;;;;;;;;;;11.50;91.30;;;;;;4316007;33;43517;-83
2022/03/13 05:24:04;;;;;;;;;;;11.50;91.20;;;;;;4316230;33;43899;-83
2022/03/13 05:26:33;;;;;;;;;;;11.50;91.40;;;;;;4316384;33;42361;-83
2022/03/13 05:29:00;;;;;;;;;;;11.50;91.70;;;;;;4316998;33;42669;-83
2022/03/13 05:31:27;;;;;;;;;;;11.60;91.50;;;;;;4317789;33;44224;-83
2022/03/13 05:33:54;;;;;;;;;;;11.50;91.50;;;;;;4316113;33;42705;-83
2022/03/13 05:36:22;;;;;;;;;;;11.50;91.60;;;;;;4316359;33;43966;-83
2022/03/13 05:38:49;;;;;;;;;;;11.50;91.50;;;;;;4316232;33;43225;-83
2022/03/13 05:41:16;;;;;;;;;;;11.50;91.50;;;;;;4316066;33;45772;-84
2022/03/13 05:43:43;;;;;;;;;;;11.50;91.60;;;;;;4315741;33;43245;-82
2022/03/13 05:46:10;;;;;;;;;;;11.50;91.80;;;;;;4316912;33;43939;-83
2022/03/13 05:48:38;;;;;;;;;;;11.50;91.80;;;;;;4316949;33;44215;-84
2022/03/13 05:51:05;;;;;;;;;;;11.50;92.00;;;;;;4316143;33;44249;-84
2022/03/13 05:53:32;;;;;;;;;;;11.50;91.80;;;;;;4315139;33;44970;-83
2022/03/13 05:55:59;;;;;;;;;;;11.50;91.90;;;;;;4327906;33;43188;-84
2022/03/13 05:58:26;;;;;;;;;;;11.50;91.60;;;;;;4317057;33;43572;-83
2022/03/13 06:01:05;;;;;;;;;;;11.40;91.80;;;;;;4316682;33;45175;-83
2022/03/13 06:03:33;;;;;;;;;;;11.50;91.80;;;;;;4316952;33;43045;-83
2022/03/13 06:06:04;;;;;;;;;;;11.40;91.90;;;;;;4315341;33;46048;-83
2022/03/13 06:08:32;;;;;;;;;;;11.50;91.90;;;;;;4315353;33;43254;-83
2022/03/13 06:10:59;;;;;;;;;;;11.50;92.00;;;;;;4315346;33;42462;-83
2022/03/13 06:13:26;;;;;;;;;;;11.50;92.00;;;;;;4315522;33;42964;-83
2022/03/13 06:15:54;;;;;;;;;;;11.50;91.90;;;;;;4316604;33;44618;-84
2022/03/13 06:18:21;;;;;;;;;;;11.50;91.90;;;;;;4315701;33;43520;-82
2022/03/13 06:20:48;;;;;;;;;;;11.40;91.80;;;;;;4315687;33;43436;-83
2022/03/13 06:23:16;;;;;;;;;;;11.40;92.00;;;;;;4315471;33;44458;-83
2022/03/13 06:25:43;;;;;;;;;;;11.40;91.80;;;;;;4315575;33;44692;-83
2022/03/13 06:28:14;;;;;;;;;;;11.40;92.20;;;;;;4315469;33;44536;-83
2022/03/13 06:30:42;;;;;;;;;;;11.40;92.10;;;;;;4315056;33;44128;-83
2022/03/13 06:33:09;;;;;;;;;;;11.40;92.10;;;;;;4316436;33;42538;-83
2022/03/13 06:35:36;;;;;;;;;;;11.40;92.00;;;;;;4315008;33;43441;-83
2022/03/13 06:38:03;;;;;;;;;;;11.40;92.10;;;;;;4316044;33;43033;-83
2022/03/13 06:40:30;;;;;;;;;;;11.40;92.10;;;;;;4315247;33;44928;-83
2022/03/13 06:42:58;;;;;;;;;;;11.40;92.10;;;;;;4316235;33;43060;-83
2022/03/13 06:45:25;;;;;;;;;;;11.40;92.10;;;;;;4315470;33;43472;-83
2022/03/13 06:47:52;;;;;;;;;;;11.40;92.20;;;;;;4327169;33;44211;-83
2022/03/13 06:50:22;;;;;;;;;;;11.40;92.20;;;;;;4315990;33;43010;-83
2022/03/13 06:52:50;;;;;;;;;;;11.40;92.20;;;;;;4315157;33;44266;-83
2022/03/13 06:55:18;;;;;;;;;;;11.40;92.00;;;;;;4316386;33;43255;-83
2022/03/13 06:57:46;;;;;;;;;;;11.40;92.10;;;;;;4314689;33;43331;-83
2022/03/13 07:00:14;;;;;;;;;;;11.40;92.10;;;;;;4316042;33;44047;-83
2022/03/13 07:02:46;;;;;;;;;;;11.40;91.90;;;;;;4314817;33;45420;-83
2022/03/13 07:05:14;;;;;;;;;;;11.40;92.10;;;;;;4314589;33;44339;-84
2022/03/13 07:07:42;;;;;;;;;;;11.40;92.30;;;;;;4315945;33;43730;-83
2022/03/13 07:10:12;;;;;;;;;;;11.40;92.20;;;;;;4314822;33;42431;-83
2022/03/13 07:12:40;;;;;;;;;;;11.40;92.00;;;;;;4316139;33;45935;-83
2022/03/13 07:15:12;;;;;;;;;;;11.40;92.10;;;;;;4314471;33;44699;-83
2022/03/13 07:17:41;;;;;;;;;;;11.40;92.10;;;;;;4315030;33;43043;-83
2022/03/13 07:20:08;;;;;;;;;;;11.40;92.10;;;;;;4314662;33;42773;-83
2022/03/13 07:22:35;;;;;;;;;;;11.40;92.00;;;;;;4315464;33;19990;-83
2022/03/13 07:25:03;;;;;;;;;;;11.40;92.00;;;;;;4315476;33;45363;-83
2022/03/13 07:27:30;;;;;;;;;;;11.40;92.20;;;;;;4315447;33;45821;-83
2022/03/13 07:29:57;;;;;;;;;;;11.40;92.10;;;;;;4326775;33;44245;-83
2022/03/13 07:32:24;;;;;;;;;;;11.40;92.20;;;;;;4327095;33;44092;-83
2022/03/13 07:34:51;;;;;;;;;;;11.40;92.20;;;;;;4314237;33;45833;-83
2022/03/13 07:37:18;;;;;;;;;;;11.40;92.30;;;;;;4315892;33;44014;-83
2022/03/13 07:39:48;;;;;;;;;;;11.40;92.20;;;;;;4326690;33;43171;-82
2022/03/13 07:42:16;;;;;;;;;;;11.40;92.40;;;;;;4315345;33;43283;-83
2022/03/13 07:44:44;;;;;;;;;;;11.40;92.40;;;;;;4314188;33;44387;-84
2022/03/13 07:47:11;;;;;;;;;;;11.40;92.30;;;;;;4314900;33;45539;-83
2022/03/13 07:49:38;;;;;;;;;;;11.40;92.20;;;;;;4326926;33;43920;-83
2022/03/13 07:52:05;;;;;;;;;;;11.50;92.20;;;;;;4314879;33;43854;-83
2022/03/13 07:54:33;;;;;;;;;;;11.40;92.10;;;;;;4314820;33;43465;-84
2022/03/13 07:57:00;;;;;;;;;;;11.50;92.40;;;;;;4314321;33;44424;-83
2022/03/13 07:59:28;;;;;;;;;;;11.50;92.10;;;;;;4326757;33;43242;-83
2022/03/13 08:01:55;;;;;;;;;;;11.40;92.40;;;;;;4315490;33;44199;-83
2022/03/13 08:04:24;;;;;;;;;;;11.40;92.30;;;;;;4314376;33;43760;-83
2022/03/13 08:06:51;;;;;;;;;;;11.40;92.40;;;;;;4314893;33;43609;-83
2022/03/13 08:09:18;;;;;;;;;;;11.40;92.50;;;;;;4315164;33;45655;-82
2022/03/13 08:11:45;;;;;;;;;;;11.40;92.50;;;;;;4326146;33;44262;-83
2022/03/13 08:14:12;;;;;;;;;;;11.50;92.30;;;;;;4315257;33;42651;-83
2022/03/13 08:16:40;;;;;;;;;;;11.50;92.50;;;;;;4315880;33;43069;-83
2022/03/13 08:19:09;;;;;;;;;;;11.50;92.60;;;;;;4317023;33;44275;-83
2022/03/13 08:21:36;;;;;;;;;;;11.50;92.60;;;;;;4318426;33;44209;-83
2022/03/13 08:24:05;;;;;;;;;;;11.50;92.30;;;;;;4329224;33;44553;-82
2022/03/13 08:26:39;;;;;;;;;;;11.50;92.40;;;;;;4316722;33;42474;-83
2022/03/13 08:29:06;;;;;;;;;;;11.60;92.90;;;;;;4316861;33;44180;-82
2022/03/13 08:31:34;;;;;;;;;;;11.50;92.30;;;;;;4316909;33;43788;-82
2022/03/13 08:34:07;;;;;;;;;;;11.60;92.40;;;;;;4318030;33;42897;-82
2022/03/13 08:36:38;;;;;;;;;;;11.60;92.50;;;;;;4318259;33;43920;-82
2022/03/13 08:39:06;;;;;;;;;;;11.60;92.40;;;;;;4318336;33;44316;-83
2022/03/13 08:41:33;;;;;;;;;;;11.60;92.30;;;;;;4317308;33;44219;-82
2022/03/13 08:44:01;;;;;;;;;;;11.60;92.20;;;;;;4316650;33;45953;-84
2022/03/13 08:46:28;;;;;;;;;;;11.60;92.50;;;;;;4317909;33;45288;-83
2022/03/13 08:48:55;;;;;;;;;;;11.60;92.30;;;;;;4316923;33;44941;-82
2022/03/13 08:51:23;;;;;;;;;;;11.60;92.30;;;;;;4316881;33;43759;-82
2022/03/13 08:53:50;;;;;;;;;;;11.60;92.40;;;;;;4316380;33;44880;-82
2022/03/13 08:56:18;;;;;;;;;;;11.70;92.20;;;;;;4317370;33;45688;-83
2022/03/13 08:58:45;;;;;;;;;;;11.70;92.10;;;;;;4317665;33;44593;-82
2022/03/13 09:01:12;;;;;;;;;;;11.70;92.00;;;;;;4317965;33;43209;-82
2022/03/13 09:03:42;;;;;;;;;;;11.70;92.10;;;;;;4316682;33;43564;-82
2022/03/13 09:06:09;;;;;;;;;;;11.70;92.10;;;;;;4316188;33;44212;-83
2022/03/13 09:08:36;;;;;;;;;;;11.70;92.30;;;;;;4316334;33;42668;-83
2022/03/13 09:11:03;;;;;;;;;;;11.70;92.10;;;;;;4328873;33;44566;-82
2022/03/13 09:13:30;;;;;;;;;;;11.70;92.10;;;;;;4317600;33;20072;-82
2022/03/13 09:15:57;;;;;;;;;;;11.70;92.20;;;;;;4316445;33;43682;-82
2022/03/13 09:18:24;;;;;;;;;;;11.70;91.70;;;;;;4316546;33;44226;-82
2022/03/13 09:20:57;;;;;;;;;;;11.70;91.90;;;;;;4316607;33;43894;-82
2022/03/13 09:23:27;;;;;;;;;;;11.80;92.10;;;;;;4316127;33;42764;-82
2022/03/13 09:25:55;;;;;;;;;;;11.80;91.80;;;;;;4328506;33;43915;-82
2022/03/13 09:28:22;;;;;;;;;;;11.80;91.90;;;;;;4316267;33;42735;-82
2022/03/13 09:30:49;;;;;;;;;;;11.80;91.80;;;;;;4316308;33;44346;-82
2022/03/13 09:33:17;;;;;;;;;;;11.80;91.90;;;;;;4315978;33;43272;-83
2022/03/13 09:35:44;;;;;;;;;;;11.80;91.80;;;;;;4317047;33;44026;-82
2022/03/13 09:38:11;;;;;;;;;;;11.90;91.80;;;;;;4315796;33;44011;-82
2022/03/13 09:40:38;;;;;;;;;;;11.90;91.80;;;;;;4315986;33;44123;-82
2022/03/13 09:43:05;;;;;;;;;;;11.90;91.90;;;;;;4316228;33;43141;-82
2022/03/13 09:45:33;;;;;;;;;;;11.90;92.00;;;;;;4315964;33;43956;-81
2022/03/13 09:48:03;;;;;;;;;;;11.90;91.90;;;;;;4316062;33;43782;-82
2022/03/13 09:50:30;;;;;;;;;;;11.90;91.80;;;;;;4317379;33;44193;-82
2022/03/13 09:52:57;;;;;;;;;;;11.90;92.00;;;;;;4316299;33;44188;-82
2022/03/13 09:55:25;;;;;;;;;;;11.90;92.20;;;;;;4316637;33;43889;-82
2022/03/13 09:57:52;;;;;;;;;;;12.00;92.20;;;;;;4327896;33;43145;-83
2022/03/13 10:00:21;;;;;;;;;;;12.00;92.20;;;;;;4315943;33;44215;-82
2022/03/13 10:02:53;;;;;;;;;;;12.10;92.10;;;;;;4316671;33;42279;-81
2022/03/13 10:05:20;;;;;;;;;;;12.10;91.80;;;;;;4315546;33;44071;-82
2022/03/13 10:07:55;;;;;;;;;;;12.10;91.90;;;;;;4316107;33;43142;-81
2022/03/13 10:10:23;;;;;;;;;;;12.10;91.70;;;;;;4315940;33;43904;-82
2022/03/13 10:12:50;;;;;;;;;;;12.10;91.80;;;;;;4315361;33;43486;-81
2022/03/13 10:15:18;;;;;;;;;;;12.10;91.70;;;;;;4315712;33;42320;-82
2022/03/13 10:17:45;;;;;;;;;;;12.20;91.60;;;;;;4315609;33;42958;-82
2022/03/13 10:20:12;;;;;;;;;;;12.20;91.90;;;;;;4316604;33;44133;-82
2022/03/13 10:22:39;;;;;;;;;;;12.20;91.80;;;;;;4315565;33;42997;-82
2022/03/13 10:25:06;;;;;;;;;;;12.20;91.40;;;;;;4316219;33;42668;-82
2022/03/13 10:27:33;;;;;;;;;;;12.20;91.50;;;;;;4315653;33;43204;-82
2022/03/13 10:30:01;;;;;;;;;;;12.20;91.60;;;;;;4315498;33;46308;-82
2022/03/13 10:32:28;;;;;;;;;;;12.20;91.70;;;;;;4316131;33;43254;-82
2022/03/13 10:34:58;;;;;;;;;;;12.30;91.50;;;;;;4315445;33;43257;-82
2022/03/13 10:37:52;;;;;;;;;;;12.30;91.60;;;;;;4315640;33;44153;-82
2022/03/13 10:40:24;;;;;;;;;;;12.30;91.70;;;;;;4312669;33;43574;-83
2022/03/13 10:42:51;;;;;;;;;;;12.40;91.70;;;;;;4316036;33;44052;-82
2022/03/13 10:45:36;;;;;;;;;;;12.40;91.70;;;;;;4326929;33;42871;-82
2022/03/13 10:48:28;;;;;;;;;;;12.40;91.80;;;;;;4315279;33;44176;-82
2022/03/13 10:50:57;;;;;;;;;;;12.40;91.50;;;;;;4316336;33;42815;-82
2022/03/13 10:53:24;;;;;;;;;;;12.40;91.60;;;;;;4315016;33;43015;-83
2022/03/13 10:56:01;;;;;;;;;;;12.50;91.60;;;;;;4326990;33;43242;-82
2022/03/13 10:58:31;;;;;;;;;;;12.50;91.30;;;;;;4315890;33;42310;-81
2022/03/13 11:01:09;;;;;;;;;;;12.60;91.50;;;;;;4315209;33;44146;-82
2022/03/13 11:03:57;;;;;;;;;;;12.50;91.30;;;;;;4315756;33;43369;-82
2022/03/13 11:06:25;;;;;;;;;;;12.60;91.40;;;;;;4307717;33;42574;-82
2022/03/13 11:08:54;;;;;;;;;;;12.60;91.70;;;;;;4314705;33;43022;-82
2022/03/13 11:11:27;;;;;;;;;;;12.70;91.40;;;;;;4315081;33;43175;-82
2022/03/13 11:13:57;;;;;;;;;;;12.60;91.40;;;;;;4314924;33;44658;-82
2022/03/13 11:16:31;;;;;;;;;;;12.70;91.10;;;;;;4315172;33;45016;-82
2022/03/13 11:19:03;;;;;;;;;;;12.70;91.20;;;;;;4315034;33;43979;-82
2022/03/13 11:21:31;;;;;;;;;;;12.70;91.00;;;;;;4315153;33;44223;-82
2022/03/13 11:24:00;;;;;;;;;;;12.70;91.20;;;;;;4314441;33;43989;-83
2022/03/13 11:26:29;;;;;;;;;;;12.80;91.00;;;;;;4314564;33;43471;-83
2022/03/13 11:28:57;;;;;;;;;;;12.80;90.70;;;;;;4314537;33;43092;-82
2022/03/13 11:31:38;;;;;;;;;;;12.80;91.30;;;;;;4314795;33;43480;-82
2022/03/13 11:34:16;;;;;;;;;;;12.90;91.60;;;;;;4314940;33;44238;-82
2022/03/13 11:36:44;;;;;;;;;;;12.90;90.90;;;;;;4327118;33;45173;-82
2022/03/13 11:39:13;;;;;;;;;;;12.90;91.00;;;;;;4315523;33;42582;-82
2022/03/13 11:41:44;;;;;;;;;;;12.90;91.20;;;;;;4315470;33;42545;-83
2022/03/13 11:44:18;;;;;;;;;;;12.90;91.10;;;;;;4314418;33;43520;-82
2022/03/13 11:46:47;;;;;;;;;;;13.00;91.00;;;;;;4314189;33;44218;-82
2022/03/13 11:49:30;;;;;;;;;;;13.00;90.80;;;;;;4314264;33;44901;-82
2022/03/13 11:52:09;;;;;;;;;;;13.10;90.70;;;;;;4316357;33;44661;-83
2022/03/13 11:57:46;;;;;;;;;;;13.00;90.80;;;;;;4311722;33;44986;-82
2022/03/13 12:00:13;;;;;;;;;;;13.10;91.10;;;;;;4317669;33;43305;-82
2022/03/13 12:02:40;;;;;;;;;;;13.10;91.20;;;;;;4316943;33;44969;-82
2022/03/13 12:05:25;;;;;;;;;;;13.10;91.20;;;;;;4318616;33;43839;-82
2022/03/13 12:07:56;;;;;;;;;;;13.20;91.30;;;;;;4318552;33;43913;-82
2022/03/13 12:10:41;;;;;;;;;;;13.20;91.00;;;;;;4317081;33;44157;-81
2022/03/13 12:13:12;;;;;;;;;;;13.20;91.10;;;;;;4317273;33;42996;-82
2022/03/13 12:15:40;;;;;;;;;;;13.30;91.00;;;;;;4319696;33;20037;-82
2022/03/13 12:18:23;;;;;;;;;;;13.30;91.10;;;;;;4316977;33;44136;-82
2022/03/13 12:20:51;;;;;;;;;;;13.30;90.90;;;;;;4317402;33;43837;-83
2022/03/13 12:23:31;;;;;;;;;;;13.30;91.10;;;;;;4318169;33;43767;-82
2022/03/13 12:26:18;;;;;;;;;;;13.40;90.80;;;;;;4317388;33;42306;-82
2022/03/13 12:28:45;;;;;;;;;;;13.40;90.80;;;;;;4318262;33;44562;-82
2022/03/13 12:31:13;;;;;;;;;;;13.40;90.60;;;;;;4317254;33;43869;-82
2022/03/13 12:33:44;;;;;;;;;;;13.40;90.80;;;;;;4328796;33;43034;-82
2022/03/13 12:36:11;;;;;;;;;;;13.40;90.40;;;;;;4328867;33;42793;-82
2022/03/13 12:38:43;;;;;;;;;;;13.50;90.50;;;;;;4317972;33;43242;-82
2022/03/13 12:41:11;;;;;;;;;;;13.50;90.50;;;;;;4318218;33;45306;-82
2022/03/13 12:43:44;;;;;;;;;;;13.50;90.90;;;;;;4316544;33;43337;-82
2022/03/13 12:46:12;;;;;;;;;;;13.50;90.70;;;;;;4317507;33;20022;-83
2022/03/13 12:48:48;;;;;;;;;;;13.50;90.70;;;;;;4316959;33;44021;-83
2022/03/13 12:51:41;;;;;;;;;;;13.60;90.40;;;;;;4317196;33;43518;-82
2022/03/13 12:54:10;;;;;;;;;;;13.60;90.90;;;;;;4316834;33;45702;-82
2022/03/13 12:56:51;;;;;;;;;;;13.60;90.90;;;;;;4316687;33;44000;-82
2022/03/13 12:59:22;;;;;;;;;;;13.60;91.00;;;;;;4317941;33;45098;-82
2022/03/13 13:02:04;;;;;;;;;;;13.70;90.60;;;;;;4316131;33;43276;-82
2022/03/13 13:04:33;;;;;;;;;;;13.70;90.60;;;;;;4316742;33;43997;-83
2022/03/13 13:07:00;;;;;;;;;;;13.70;90.30;;;;;;4316234;33;44384;-82
2022/03/13 13:09:28;;;;;;;;;;;13.70;90.70;;;;;;4328435;33;42578;-82
2022/03/13 13:11:55;;;;;;;;;;;13.70;90.80;;;;;;4316713;33;44733;-82
2022/03/13 13:14:26;;;;;;;;;;;13.70;90.40;;;;;;4317820;33;45843;-84
2022/03/13 13:16:57;;;;;;;;;;;13.70;90.60;;;;;;4316684;33;45623;-81
2022/03/13 13:19:25;;;;;;;;;;;13.70;90.60;;;;;;4316419;33;44248;-82
2022/03/13 13:21:57;;;;;;;;;;;13.80;90.60;;;;;;4316223;33;43937;-82
2022/03/13 13:24:35;;;;;;;;;;;13.80;90.50;;;;;;4328321;33;44253;-82
2022/03/13 13:27:02;;;;;;;;;;;13.80;90.60;;;;;;4316534;33;44890;-82
2022/03/13 13:29:34;;;;;;;;;;;13.80;90.20;;;;;;4315983;33;43187;-82
2022/03/13 13:32:19;;;;;;;;;;;13.90;90.60;;;;;;4317273;33;43640;-82
2022/03/13 13:35:05;;;;;;;;;;;13.90;90.80;;;;;;4315880;33;43011;-82
2022/03/13 13:37:32;;;;;;;;;;;13.90;90.60;;;;;;4315913;33;44141;-82
2022/03/13 13:40:10;;;;;;;;;;;14.00;90.00;;;;;;4316112;33;42832;-82
2022/03/13 13:42:39;;;;;;;;;;;14.00;90.50;;;;;;4317372;33;43824;-82
2022/03/13 13:45:36;;;;;;;;;;;14.00;90.20;;;;;;4328373;33;44624;-82
2022/03/13 13:48:22;;;;;;;;;;;14.00;90.60;;;;;;4308006;33;42640;-82
2022/03/13 13:51:09;;;;;;;;;;;14.10;90.30;;;;;;4316231;33;43915;-82
2022/03/13 13:53:48;;;;;;;;;;;14.10;90.50;;;;;;4315783;33;43532;-82
2022/03/13 13:56:16;;;;;;;;;;;14.10;90.00;;;;;;4327998;33;43654;-82
2022/03/13 13:58:44;;;;;;;;;;;14.10;89.60;;;;;;4316023;33;43522;-82
2022/03/13 14:01:26;;;;;;;;;;;14.10;90.00;;;;;;4316709;33;42589;-82
2022/03/13 14:03:55;;;;;;;;;;;14.10;90.00;;;;;;4316630;33;44303;-82
2022/03/13 14:06:25;;;;;;;;;;;14.10;89.80;;;;;;4315641;33;43009;-82
2022/03/13 14:08:52;;;;;;;;;;;14.10;90.00;;;;;;4315813;33;43248;-82
2022/03/13 14:11:20;;;;;;;;;;;14.10;89.70;;;;;;4327984;33;44230;-82
2022/03/13 14:13:48;;;;;;;;;;;14.10;90.30;;;;;;4314672;33;43942;-82
2022/03/13 14:16:17;;;;;;;;;;;14.10;90.20;;;;;;4316359;33;44149;-82
2022/03/13 14:18:48;;;;;;;;;;;14.10;90.20;;;;;;4316571;33;43927;-82
2022/03/13 14:21:16;;;;;;;;;;;14.10;90.20;;;;;;4315845;33;44010;-82
2022/03/13 14:23:43;;;;;;;;;;;14.10;90.30;;;;;;4316246;33;43473;-82
2022/03/13 14:26:11;;;;;;;;;;;14.10;89.80;;;;;;4315669;33;43220;-83
2022/03/13 14:28:39;;;;;;;;;;;14.10;90.20;;;;;;4315371;33;42686;-82
2022/03/13 14:31:06;;;;;;;;;;;14.10;90.00;;;;;;4316132;33;43902;-82